createdAt,value
2018-04-30T00:00:37.562Z,13.60
2018-04-30T00:03:06.851Z,13.40
2018-04-30T00:05:36.515Z,14.13
2018-04-30T00:08:06.149Z,12.53
2018-04-30T00:10:35.781Z,12.80
2018-04-30T00:13:05.464Z,12.97
2018-04-30T00:15:35.100Z,12.97
2018-04-30T00:18:04.740Z,13.00
2018-04-30T00:20:34.420Z,13.37
2018-04-30T00:23:04.042Z,12.20
2018-04-30T00:37:39.723Z,12.97
2018-04-30T00:40:09.399Z,13.43
2018-04-30T00:42:44.425Z,13.27
2018-04-30T00:45:15.909Z,12.67
2018-04-30T00:47:48.872Z,13.17
2018-04-30T00:50:22.156Z,12.97
2018-04-30T00:52:51.654Z,12.53
2018-04-30T00:55:21.310Z,12.40
2018-04-30T00:57:50.987Z,11.87
2018-04-30T01:00:20.640Z,12.73
2018-04-30T01:02:53.731Z,12.27
2018-04-30T01:05:23.398Z,12.13
2018-04-30T01:07:58.428Z,12.97
2018-04-30T01:10:28.110Z,13.20
2018-04-30T01:13:03.140Z,13.67
2018-04-30T01:15:32.782Z,13.80
2018-04-30T01:18:03.793Z,12.80
2018-04-30T01:20:33.492Z,14.13
2018-04-30T01:23:07.034Z,13.80
2018-04-30T01:25:36.735Z,14.43
2018-04-30T01:28:06.497Z,15.53
2018-04-30T01:30:36.194Z,14.70
2018-04-30T01:33:05.854Z,14.07
2018-04-30T01:35:38.986Z,16.20
2018-04-30T01:38:14.212Z,16.10
2018-04-30T01:40:45.528Z,14.80
2018-04-30T01:43:20.954Z,15.03
2018-04-30T01:45:50.590Z,15.40
2018-04-30T01:48:20.029Z,15.67
2018-04-30T01:50:50.036Z,17.10
2018-04-30T01:53:19.679Z,15.47
2018-04-30T01:55:54.701Z,15.57
2018-04-30T01:58:24.393Z,15.33
2018-04-30T02:00:57.218Z,15.70
2018-04-30T02:03:30.039Z,15.53
2018-04-30T02:06:03.162Z,15.00
2018-04-30T02:08:32.588Z,15.87
2018-04-30T02:11:02.282Z,16.17
2018-04-30T02:13:31.713Z,14.87
2018-04-30T02:16:01.410Z,15.73
2018-04-30T02:18:34.355Z,15.80
2018-04-30T02:21:04.043Z,15.70
2018-04-30T02:23:37.388Z,16.40
2018-04-30T02:26:12.883Z,16.27
2018-04-30T02:28:44.216Z,15.93
2018-04-30T02:34:00.043Z,16.23
2018-04-30T02:36:29.729Z,15.30
2018-04-30T02:38:59.400Z,15.43
2018-04-30T02:48:55.052Z,15.27
2018-04-30T02:51:24.736Z,14.83
2018-04-30T02:53:55.289Z,14.57
2018-04-30T02:56:30.521Z,16.03
2018-04-30T02:59:02.004Z,16.07
2018-04-30T03:01:31.680Z,15.53
2018-04-30T03:04:01.366Z,18.23
2018-04-30T03:06:30.467Z,16.80
2018-04-30T03:09:03.500Z,16.37
2018-04-30T03:11:36.868Z,16.20
2018-04-30T03:14:09.592Z,16.20
2018-04-30T03:16:42.935Z,17.17
2018-04-30T03:19:16.053Z,16.33
2018-04-30T03:21:45.760Z,15.87
2018-04-30T03:24:21.217Z,17.70
2018-04-30T03:26:54.727Z,16.63
2018-04-30T03:29:24.107Z,17.13
2018-04-30T03:31:53.757Z,16.17
2018-04-30T03:34:23.424Z,16.43
2018-04-30T03:36:53.135Z,16.37
2018-04-30T03:39:22.813Z,16.87
2018-04-30T03:41:52.503Z,17.10
2018-04-30T03:44:22.220Z,17.83
2018-04-30T03:46:51.901Z,17.57
2018-04-30T03:49:21.585Z,16.80
2018-04-30T03:51:56.368Z,15.17
2018-04-30T03:54:29.491Z,16.17
2018-04-30T03:56:59.165Z,14.83
2018-04-30T03:59:28.509Z,15.53
2018-04-30T04:02:13.198Z,14.57
2018-04-30T04:19:48.067Z,14.17
2018-04-30T04:22:17.754Z,14.20
2018-04-30T04:24:51.027Z,13.40
2018-04-30T04:27:20.709Z,14.70
2018-04-30T04:42:21.866Z,13.67
2018-04-30T04:44:51.543Z,13.50
2018-04-30T04:47:21.290Z,14.73
2018-04-30T04:49:54.645Z,13.93
2018-04-30T04:52:24.345Z,13.50
2018-04-30T04:54:55.610Z,13.50
2018-04-30T04:57:25.321Z,14.37
2018-04-30T04:59:58.515Z,13.27
2018-04-30T05:02:31.598Z,12.53
2018-04-30T05:05:01.492Z,13.93
2018-04-30T05:07:34.323Z,12.83
2018-04-30T05:10:03.756Z,12.03
2018-04-30T05:12:35.577Z,12.17
2018-04-30T05:15:05.192Z,12.03
2018-04-30T05:17:34.558Z,11.17
2018-04-30T05:20:04.020Z,11.77
2018-04-30T05:22:35.589Z,11.13
2018-04-30T05:25:05.283Z,11.93
2018-04-30T05:27:38.358Z,11.13
2018-04-30T05:30:11.151Z,11.20
2018-04-30T05:32:44.077Z,11.30
2018-04-30T05:35:13.775Z,10.90
2018-04-30T05:37:46.785Z,11.63
2018-04-30T05:40:19.687Z,11.33
2018-04-30T05:42:49.341Z,10.70
2018-04-30T05:45:18.991Z,10.30
2018-04-30T05:47:49.267Z,10.45
2018-04-30T05:50:19.607Z,10.27
2018-04-30T05:52:49.871Z,10.18
2018-04-30T05:55:19.593Z,10.02
2018-04-30T05:57:50.048Z,11.18
2018-04-30T06:00:20.342Z,10.77
2018-04-30T06:02:55.689Z,9.63
2018-04-30T06:05:27.092Z,10.38
2018-04-30T06:08:03.218Z,9.75
2018-04-30T06:10:40.060Z,9.70
2018-04-30T06:13:10.299Z,10.25
2018-04-30T06:15:40.536Z,9.95
2018-04-30T06:18:10.778Z,9.20
2018-04-30T06:20:41.167Z,10.35
2018-04-30T06:23:14.558Z,9.60
2018-04-30T06:25:44.810Z,9.13
2018-04-30T06:28:15.053Z,8.75
2018-04-30T06:30:44.437Z,9.40
2018-04-30T06:33:14.076Z,8.60
2018-04-30T06:35:43.841Z,9.10
2018-04-30T06:38:13.446Z,9.17
2018-04-30T06:40:42.833Z,9.30
2018-04-30T06:43:13.404Z,8.43
2018-04-30T06:45:42.776Z,8.80
2018-04-30T06:48:13.859Z,9.38
2018-04-30T06:50:47.623Z,9.07
2018-04-30T06:56:18.704Z,9.48
2018-04-30T07:18:20.114Z,7.53
2018-04-30T07:20:50.039Z,8.30
2018-04-30T07:26:08.738Z,8.38
2018-04-30T07:28:38.938Z,8.32
2018-04-30T07:31:08.882Z,8.05
2018-04-30T07:33:38.864Z,7.32
2018-04-30T07:36:09.085Z,7.50
2018-04-30T07:38:39.524Z,8.32
2018-04-30T07:41:09.936Z,7.93
2018-04-30T07:43:39.873Z,7.50
2018-04-30T07:46:09.855Z,7.72
2018-04-30T07:48:40.071Z,7.50
2018-04-30T07:51:10.369Z,7.93
2018-04-30T07:53:40.313Z,7.85
2018-04-30T07:56:10.248Z,7.62
2018-04-30T07:58:40.526Z,7.50
2018-04-30T08:01:10.747Z,7.07
2018-04-30T08:03:40.722Z,7.30
2018-04-30T08:06:10.663Z,6.85
2018-04-30T08:08:40.608Z,7.22
2018-04-30T08:11:10.851Z,6.70
2018-04-30T08:13:41.138Z,6.85
2018-04-30T08:16:11.080Z,6.78
2018-04-30T08:18:41.032Z,7.18
2018-04-30T08:21:11.016Z,7.28
2018-04-30T08:26:20.286Z,7.43
2018-04-30T08:28:50.536Z,7.05
2018-04-30T08:31:20.787Z,6.90
2018-04-30T08:33:51.042Z,7.07
2018-04-30T08:36:20.965Z,6.78
2018-04-30T08:38:50.911Z,6.95
2018-04-30T08:41:21.150Z,6.95
2018-04-30T08:43:51.108Z,7.03
2018-04-30T08:46:20.748Z,6.90
2018-04-30T08:48:50.712Z,7.20
2018-04-30T08:51:20.953Z,5.80
2018-04-30T08:53:50.904Z,6.30
2018-04-30T08:56:20.866Z,5.55
2018-04-30T08:58:51.444Z,5.78
2018-04-30T09:01:21.698Z,6.32
2018-04-30T09:03:51.628Z,5.70
2018-04-30T09:06:21.575Z,6.82
2018-04-30T09:08:51.537Z,6.30
2018-04-30T09:11:21.506Z,5.85
2018-04-30T09:13:51.566Z,5.32
2018-04-30T09:16:21.553Z,6.20
2018-04-30T09:18:51.476Z,5.80
2018-04-30T09:21:21.476Z,5.35
2018-04-30T09:23:51.750Z,5.95
2018-04-30T09:26:22.160Z,6.20
2018-04-30T09:28:52.235Z,5.80
2018-04-30T09:31:22.458Z,6.37
2018-04-30T09:33:52.407Z,6.15
2018-04-30T09:36:22.640Z,6.03
2018-04-30T09:38:52.592Z,5.70
2018-04-30T09:41:22.557Z,5.60
2018-04-30T09:43:52.778Z,5.47
2018-04-30T09:46:22.698Z,5.28
2018-04-30T09:48:52.642Z,5.95
2018-04-30T09:51:22.640Z,5.62
2018-04-30T09:53:52.848Z,5.35
2018-04-30T09:56:22.823Z,6.07
2018-04-30T09:58:52.767Z,5.40
2018-04-30T10:01:22.740Z,5.53
2018-04-30T10:03:52.673Z,6.30
2018-04-30T10:06:22.936Z,5.90
2018-04-30T10:08:52.849Z,5.65
2018-04-30T10:11:22.802Z,5.70
2018-04-30T10:13:52.725Z,6.60
2018-04-30T10:16:23.036Z,5.97
2018-04-30T10:18:53.000Z,5.50
2018-04-30T10:21:23.212Z,4.60
2018-04-30T10:23:53.213Z,4.87
2018-04-30T10:26:23.388Z,4.47
2018-04-30T10:28:53.588Z,5.60
2018-04-30T10:31:23.539Z,4.12
2018-04-30T10:33:53.771Z,4.95
2018-04-30T10:36:23.982Z,4.05
2018-04-30T10:38:53.700Z,5.12
2018-04-30T10:41:23.710Z,4.30
2018-04-30T10:43:53.910Z,4.97
2018-04-30T10:46:23.860Z,4.75
2018-04-30T10:48:53.834Z,4.68
2018-04-30T10:51:23.766Z,4.68
2018-04-30T10:53:53.777Z,4.70
2018-04-30T10:56:24.030Z,5.07
2018-04-30T10:58:53.960Z,4.50
2018-04-30T11:01:23.893Z,4.90
2018-04-30T11:03:54.136Z,4.43
2018-04-30T11:06:24.054Z,4.55
2018-04-30T11:08:54.016Z,4.78
2018-04-30T11:11:23.996Z,5.07
2018-04-30T11:13:53.922Z,5.10
2018-04-30T11:16:23.870Z,4.90
2018-04-30T11:18:53.839Z,4.87
2018-04-30T11:21:23.763Z,5.03
2018-04-30T11:23:53.716Z,4.55
2018-04-30T11:26:23.695Z,4.72
2018-04-30T11:28:53.636Z,4.53
2018-04-30T11:31:23.592Z,5.22
2018-04-30T11:33:53.613Z,7.07
2018-04-30T11:36:23.852Z,5.50
2018-04-30T11:38:54.020Z,5.15
2018-04-30T11:41:24.003Z,5.05
2018-04-30T11:43:53.969Z,5.05
2018-04-30T11:46:23.949Z,5.03
2018-04-30T11:48:53.713Z,5.30
2018-04-30T11:51:23.885Z,4.90
2018-04-30T11:53:53.852Z,5.22
2018-04-30T11:56:23.837Z,5.32
2018-04-30T11:58:53.794Z,6.15
2018-04-30T12:01:23.964Z,6.22
2018-04-30T12:03:53.952Z,5.55
2018-04-30T12:06:23.878Z,5.12
2018-04-30T12:08:53.843Z,5.25
2018-04-30T12:11:24.319Z,5.35
2018-04-30T12:13:54.263Z,5.70
2018-04-30T12:16:24.246Z,5.90
2018-04-30T12:18:54.229Z,5.40
2018-04-30T12:21:24.446Z,5.70
2018-04-30T12:23:54.408Z,5.50
2018-04-30T12:26:24.040Z,6.22
2018-04-30T12:28:54.006Z,5.87
2018-04-30T12:31:23.915Z,5.78
2018-04-30T12:33:54.077Z,6.10
2018-04-30T12:36:23.489Z,5.13
2018-04-30T12:38:53.436Z,4.95
2018-04-30T12:41:23.402Z,5.72
2018-04-30T12:43:53.399Z,5.65
2018-04-30T12:46:23.056Z,5.40
2018-04-30T12:48:53.201Z,5.40
2018-04-30T12:51:23.176Z,5.85
2018-04-30T12:53:53.111Z,5.90
2018-04-30T12:56:23.286Z,5.37
2018-04-30T12:58:53.246Z,5.43
2018-04-30T13:01:23.487Z,4.95
2018-04-30T13:03:55.537Z,5.47
2018-04-30T13:06:25.592Z,5.15
2018-04-30T13:08:55.790Z,5.68
2018-04-30T13:11:25.735Z,4.65
2018-04-30T13:13:55.759Z,5.50
2018-04-30T13:16:26.025Z,5.22
2018-04-30T13:18:55.976Z,5.40
2018-04-30T13:21:25.933Z,4.80
2018-04-30T13:23:55.981Z,5.45
2018-04-30T13:26:25.914Z,4.93
2018-04-30T13:28:55.882Z,5.28
2018-04-30T13:31:25.888Z,5.07
2018-04-30T13:33:55.847Z,5.00
2018-04-30T13:36:25.463Z,5.62
2018-04-30T13:38:56.100Z,5.50
2018-04-30T13:41:26.296Z,5.70
2018-04-30T13:43:55.654Z,5.50
2018-04-30T13:46:25.735Z,5.50
2018-04-30T13:48:55.666Z,4.93
2018-04-30T13:51:25.898Z,5.62
2018-04-30T13:53:55.874Z,4.95
2018-04-30T13:56:25.973Z,4.60
2018-04-30T13:58:55.939Z,4.50
2018-04-30T14:01:26.206Z,5.12
2018-04-30T14:03:56.134Z,4.68
2018-04-30T14:06:26.122Z,4.78
2018-04-30T14:08:56.269Z,4.75
2018-04-30T14:11:26.224Z,4.97
2018-04-30T14:13:56.172Z,4.72
2018-04-30T14:16:26.134Z,4.57
2018-04-30T14:18:57.072Z,4.53
2018-04-30T14:21:27.133Z,5.03
2018-04-30T14:23:57.318Z,4.78
2018-04-30T14:26:27.274Z,4.85
2018-04-30T14:28:57.240Z,4.90
2018-04-30T14:31:27.167Z,5.15
2018-04-30T14:33:57.108Z,4.75
2018-04-30T14:36:27.104Z,5.45
2018-04-30T14:38:57.022Z,5.10
2018-04-30T14:41:27.067Z,5.75
2018-04-30T14:43:57.004Z,5.80
2018-04-30T14:46:26.962Z,5.62
2018-04-30T14:48:56.918Z,5.18
2018-04-30T14:51:26.910Z,5.70
2018-04-30T14:53:57.034Z,5.80
2018-04-30T14:56:26.954Z,5.82
2018-04-30T14:58:56.879Z,6.32
2018-04-30T15:01:26.837Z,6.75
2018-04-30T15:03:56.436Z,6.70
2018-04-30T15:06:26.371Z,6.95
2018-04-30T15:08:56.324Z,6.43
2018-04-30T15:11:26.279Z,6.80
2018-04-30T15:13:56.265Z,6.72
2018-04-30T15:16:26.201Z,6.10
2018-04-30T15:18:56.168Z,5.80
2018-04-30T15:21:26.129Z,6.87
2018-04-30T15:23:56.065Z,6.28
2018-04-30T15:26:25.986Z,6.70
2018-04-30T15:28:55.963Z,6.12
2018-04-30T15:31:25.875Z,7.03
2018-04-30T15:33:55.840Z,6.55
2018-04-30T15:36:25.780Z,5.43
2018-04-30T15:38:55.753Z,5.60
2018-04-30T15:41:25.955Z,4.57
2018-04-30T15:43:55.912Z,4.93
2018-04-30T15:46:25.907Z,4.32
2018-04-30T15:48:55.244Z,4.12
2018-04-30T15:51:25.184Z,4.70
2018-04-30T15:53:55.156Z,4.55
2018-04-30T15:56:24.511Z,4.23
2018-04-30T15:58:53.842Z,4.90
2018-04-30T16:01:23.308Z,4.23
2018-04-30T16:03:52.796Z,3.87
2018-04-30T16:06:22.162Z,4.07
2018-04-30T16:08:51.543Z,4.27
2018-04-30T16:11:20.888Z,3.93
2018-04-30T16:13:50.242Z,4.23
2018-04-30T16:16:19.684Z,3.90
2018-04-30T16:18:49.217Z,4.20
2018-04-30T16:21:18.582Z,3.80
2018-04-30T16:23:47.967Z,4.03
2018-04-30T16:26:17.331Z,4.23
2018-04-30T16:28:46.675Z,4.67
2018-04-30T16:31:16.088Z,3.93
2018-04-30T16:33:45.195Z,4.10
2018-04-30T16:36:14.599Z,4.07
2018-04-30T16:38:43.992Z,4.43
2018-04-30T16:41:13.339Z,4.47
2018-04-30T16:43:42.695Z,4.60
2018-04-30T16:46:12.085Z,4.93
2018-04-30T16:48:41.424Z,4.50
2018-04-30T16:51:10.884Z,3.57
2018-04-30T16:53:40.272Z,4.27
2018-04-30T16:56:09.606Z,4.33
2018-04-30T16:58:39.022Z,4.90
2018-04-30T17:01:08.587Z,4.83
2018-04-30T17:03:37.931Z,4.93
2018-04-30T17:06:07.273Z,4.70
2018-04-30T17:08:36.665Z,4.83
2018-04-30T17:11:06.012Z,5.03
2018-04-30T17:13:35.359Z,4.87
2018-04-30T17:16:05.015Z,5.13
2018-04-30T17:18:34.346Z,5.20
2018-04-30T17:21:03.683Z,5.40
2018-04-30T17:23:33.076Z,4.93
2018-04-30T17:26:02.429Z,5.27
2018-04-30T17:28:31.788Z,5.50
2018-04-30T17:31:01.167Z,5.73
2018-04-30T17:33:30.510Z,5.83
2018-04-30T17:35:59.851Z,5.57
2018-04-30T17:38:29.247Z,6.03
2018-04-30T17:40:58.644Z,5.87
2018-04-30T17:43:28.147Z,5.90
2018-04-30T17:45:57.523Z,6.17
2018-04-30T17:48:26.859Z,6.37
2018-04-30T17:50:56.232Z,6.20
2018-04-30T17:53:25.647Z,6.53
2018-04-30T17:55:55.194Z,6.57
2018-04-30T17:58:24.531Z,6.90
2018-04-30T18:00:53.987Z,6.90
2018-04-30T18:03:23.339Z,7.17
2018-04-30T18:05:52.685Z,7.67
2018-04-30T18:08:22.082Z,20.97
2018-04-30T18:10:51.440Z,43.90
2018-04-30T18:13:20.454Z,34.90
2018-04-30T18:15:49.857Z,12.23
2018-04-30T18:18:19.215Z,8.03
2018-04-30T18:20:48.559Z,8.20
2018-04-30T18:23:17.956Z,7.63
2018-04-30T18:25:47.310Z,7.23
2018-04-30T18:28:16.656Z,7.67
2018-04-30T18:30:46.107Z,8.00
2018-04-30T18:33:15.513Z,9.03
2018-04-30T18:35:45.020Z,8.20
2018-04-30T18:38:13.461Z,7.53
2018-04-30T18:40:42.568Z,8.33
2018-04-30T18:43:11.914Z,9.17
2018-04-30T18:45:41.582Z,9.97
2018-04-30T18:48:10.926Z,8.73
2018-04-30T18:50:40.389Z,9.83
2018-04-30T18:53:09.780Z,9.27
2018-04-30T18:55:39.444Z,11.07
2018-04-30T18:58:08.790Z,10.07
2018-04-30T19:00:38.218Z,9.70
2018-04-30T19:03:07.573Z,9.93
2018-04-30T19:05:36.924Z,9.30
2018-04-30T19:08:06.320Z,9.60
2018-04-30T19:10:35.667Z,10.13
2018-04-30T19:13:05.015Z,10.73
2018-04-30T19:15:34.629Z,9.93
2018-04-30T19:18:03.977Z,9.77
2018-04-30T19:20:33.335Z,9.60
2018-04-30T19:23:02.743Z,11.67
2018-04-30T19:25:32.378Z,10.60
2018-04-30T19:28:01.733Z,11.10
2018-04-30T19:30:31.132Z,10.87
2018-04-30T19:33:00.541Z,10.77
2018-04-30T19:35:29.904Z,10.60
2018-04-30T19:37:59.295Z,10.00
2018-04-30T19:40:28.660Z,11.10
2018-04-30T19:42:58.017Z,10.67
2018-04-30T19:45:27.759Z,12.17
2018-04-30T19:47:57.295Z,11.23
2018-04-30T19:50:28.170Z,12.07
2018-04-30T19:52:57.581Z,11.97
2018-04-30T19:55:27.140Z,12.67
2018-04-30T19:57:56.537Z,12.10
2018-04-30T20:00:25.888Z,11.60
2018-04-30T20:02:55.250Z,12.07
2018-04-30T20:05:24.655Z,11.50
2018-04-30T20:07:54.012Z,12.03
2018-04-30T20:10:23.370Z,12.07
2018-04-30T20:12:52.767Z,12.37
2018-04-30T20:15:22.156Z,12.73
2018-04-30T20:17:51.510Z,13.03
2018-04-30T20:20:21.001Z,6.00
2018-04-30T20:22:50.477Z,4.70
2018-04-30T20:25:19.838Z,5.40
2018-04-30T20:27:49.267Z,5.00
2018-04-30T20:30:18.610Z,5.10
2018-04-30T20:32:47.951Z,5.13
2018-04-30T20:35:17.323Z,4.07
2018-04-30T20:37:46.676Z,4.20
2018-04-30T20:40:16.023Z,3.60
2018-04-30T20:42:45.203Z,3.70
2018-04-30T20:45:14.560Z,3.43
2018-04-30T20:47:43.900Z,3.40
2018-04-30T20:50:13.287Z,3.80
2018-04-30T20:52:42.637Z,3.37
2018-04-30T20:55:11.790Z,4.10
2018-04-30T20:57:41.167Z,3.63
2018-04-30T21:00:10.181Z,4.03
2018-04-30T21:02:39.727Z,4.50
2018-04-30T21:05:09.124Z,4.27
2018-04-30T21:07:38.474Z,4.17
2018-04-30T21:10:08.096Z,4.43
2018-04-30T21:12:37.482Z,4.93
2018-04-30T21:15:06.263Z,4.73
2018-04-30T21:17:35.502Z,4.63
2018-04-30T21:20:04.679Z,4.87
2018-04-30T21:22:34.024Z,5.60
2018-04-30T21:25:03.378Z,5.27
2018-04-30T21:27:32.765Z,5.20
2018-04-30T21:30:03.349Z,5.57
2018-04-30T21:32:32.707Z,4.93
2018-04-30T21:35:02.187Z,4.80
2018-04-30T21:37:31.520Z,5.10
2018-04-30T21:40:01.211Z,5.53
2018-04-30T21:42:30.737Z,4.93
2018-04-30T21:45:00.098Z,5.33
2018-04-30T21:47:29.524Z,6.30
2018-04-30T21:49:59.165Z,5.50
2018-04-30T21:52:28.782Z,5.70
2018-04-30T21:54:58.392Z,5.47
2018-04-30T21:57:27.787Z,5.10
2018-04-30T21:59:57.145Z,5.63
2018-04-30T22:02:26.813Z,5.43
2018-04-30T22:04:56.536Z,5.50
2018-04-30T22:07:26.156Z,6.17
2018-04-30T22:09:55.786Z,5.40
2018-04-30T22:12:25.199Z,6.00
2018-04-30T22:14:54.486Z,5.83
2018-04-30T22:17:24.130Z,5.53
2018-04-30T22:19:53.507Z,5.37
2018-04-30T22:22:23.124Z,5.30
2018-04-30T22:24:52.769Z,5.40
2018-04-30T22:27:22.431Z,5.20
2018-04-30T22:29:52.047Z,4.80
2018-04-30T22:32:21.715Z,5.10
2018-04-30T22:34:51.384Z,4.70
2018-04-30T22:37:20.731Z,4.50
2018-04-30T22:39:50.381Z,4.47
2018-04-30T22:42:20.048Z,4.90
2018-04-30T22:44:49.679Z,4.33
2018-04-30T22:47:19.424Z,4.93
2018-04-30T22:49:49.147Z,4.60
2018-04-30T22:52:18.482Z,4.27
2018-04-30T22:54:48.100Z,4.30
2018-04-30T22:57:17.484Z,4.30
2018-04-30T22:59:47.099Z,4.20
2018-04-30T23:02:16.734Z,4.37
2018-04-30T23:04:46.394Z,4.00
2018-04-30T23:07:16.015Z,4.37
2018-04-30T23:09:45.659Z,4.90
2018-04-30T23:12:15.330Z,4.63
2018-04-30T23:14:44.960Z,4.70
2018-04-30T23:17:14.604Z,4.63
2018-04-30T23:19:44.279Z,4.70
2018-04-30T23:22:15.812Z,4.43
2018-04-30T23:24:45.193Z,4.47
2018-04-30T23:27:14.810Z,5.20
2018-04-30T23:29:44.487Z,5.03
2018-04-30T23:32:14.106Z,4.90
2018-04-30T23:34:43.724Z,4.70
2018-04-30T23:37:13.383Z,4.83
2018-04-30T23:39:43.031Z,4.93
2018-04-30T23:42:12.662Z,4.60
2018-04-30T23:44:42.320Z,5.50
2018-04-30T23:47:11.935Z,5.80
2018-04-30T23:49:41.668Z,5.10
2018-04-30T23:52:11.325Z,5.33
2018-04-30T23:54:40.995Z,5.50
2018-04-30T23:57:10.630Z,5.97
2018-04-30T23:59:40.295Z,5.10
